createdAt,value
2023-01-02T00:00:02.366Z,3.08
2023-01-02T00:02:03.830Z,2.80
2023-01-02T00:04:05.425Z,3.00
2023-01-02T00:06:07.374Z,3.25
2023-01-02T00:08:08.930Z,2.88
2023-01-02T00:10:10.590Z,2.55
2023-01-02T00:12:12.041Z,3.03
2023-01-02T00:14:13.566Z,2.70
2023-01-02T00:16:15.060Z,2.92
2023-01-02T00:18:16.532Z,2.42
2023-01-02T00:20:18.076Z,2.65
2023-01-02T00:22:19.531Z,2.65
2023-01-02T00:24:21.375Z,2.90
2023-01-02T00:26:22.855Z,2.95
2023-01-02T00:28:24.679Z,3.67
2023-01-02T00:30:27.499Z,2.90
2023-01-02T00:32:31.444Z,2.70
2023-01-02T00:34:32.893Z,3.35
2023-01-02T00:36:34.440Z,2.53
2023-01-02T00:38:38.290Z,3.05
2023-01-02T00:40:40.250Z,2.85
2023-01-02T00:42:42.605Z,2.42
2023-01-02T00:44:44.144Z,2.97
2023-01-02T00:46:45.638Z,2.55
2023-01-02T00:48:47.228Z,2.65
2023-01-02T00:50:49.691Z,2.90
2023-01-02T00:52:51.162Z,2.78
2023-01-02T00:54:52.604Z,3.38
2023-01-02T00:56:54.055Z,2.17
2023-01-02T00:58:55.552Z,2.72
2023-01-02T01:00:57.118Z,2.53
2023-01-02T01:02:59.747Z,2.63
2023-01-02T01:05:01.268Z,2.58
2023-01-02T01:07:03.444Z,3.63
2023-01-02T01:09:04.945Z,2.72
2023-01-02T01:11:07.432Z,2.60
2023-01-02T01:13:08.911Z,2.33
2023-01-02T01:15:10.859Z,2.95
2023-01-02T01:17:12.348Z,2.90
2023-01-02T01:19:14.020Z,2.47
2023-01-02T01:21:20.141Z,2.55
2023-01-02T01:23:23.180Z,2.67
2023-01-02T01:25:24.651Z,2.58
2023-01-02T01:27:26.237Z,2.88
2023-01-02T01:29:27.700Z,2.80
2023-01-02T01:31:29.194Z,3.20
2023-01-02T01:33:32.051Z,2.80
2023-01-02T01:35:34.356Z,2.72
2023-01-02T01:37:38.759Z,2.80
2023-01-02T01:39:40.246Z,2.58
2023-01-02T01:41:41.804Z,3.35
2023-01-02T01:43:50.069Z,2.65
2023-01-02T01:45:51.601Z,3.22
2023-01-02T01:47:56.907Z,3.10
2023-01-02T01:50:10.408Z,2.58
2023-01-02T01:52:16.049Z,2.97
2023-01-02T01:54:24.913Z,3.13
2023-01-02T01:56:27.587Z,3.20
2023-01-02T01:58:35.874Z,3.10
2023-01-02T02:00:40.534Z,3.10
2023-01-02T02:02:46.475Z,3.20
2023-01-02T02:04:48.211Z,3.78
2023-01-02T02:06:51.477Z,3.13
2023-01-02T02:09:09.400Z,3.38
2023-01-02T02:11:13.346Z,3.70
2023-01-02T02:13:15.445Z,3.42
2023-01-02T02:15:21.730Z,3.20
2023-01-02T02:17:41.581Z,4.03
2023-01-02T02:19:59.156Z,3.75
2023-01-02T02:22:15.800Z,3.42
2023-01-02T02:24:28.474Z,2.85
2023-01-02T02:26:41.078Z,3.38
2023-01-02T02:28:55.546Z,3.17
2023-01-02T02:31:38.991Z,3.20
2023-01-02T02:34:12.830Z,3.30
2023-01-02T02:36:21.701Z,2.97
2023-01-02T02:38:39.133Z,3.60
2023-01-02T02:41:02.499Z,3.00
2023-01-02T02:43:35.013Z,3.33
2023-01-02T02:45:54.770Z,3.72
2023-01-02T02:48:05.512Z,3.83
2023-01-02T02:50:46.045Z,3.55
2023-01-02T02:52:56.748Z,3.55
2023-01-02T02:55:10.739Z,3.47
2023-01-02T02:57:13.557Z,3.63
2023-01-02T02:59:15.143Z,3.38
2023-01-02T03:01:18.990Z,3.50
2023-01-02T03:03:23.815Z,3.90
2023-01-02T03:05:40.014Z,3.58
2023-01-02T03:07:49.425Z,3.55
2023-01-02T03:10:04.641Z,3.95
2023-01-02T03:12:27.279Z,3.58
2023-01-02T03:14:45.521Z,3.58
2023-01-02T03:16:50.963Z,3.40
2023-01-02T03:18:57.857Z,3.50
2023-01-02T03:21:48.964Z,3.25
2023-01-02T03:23:50.432Z,3.38
2023-01-02T03:25:52.411Z,3.40
2023-01-02T03:27:59.000Z,3.45
2023-01-02T03:30:15.015Z,3.45
2023-01-02T03:32:23.919Z,3.20
2023-01-02T03:34:30.824Z,3.28
2023-01-02T03:36:35.198Z,3.67
2023-01-02T03:38:54.040Z,3.50
2023-01-02T03:41:21.968Z,3.95
2023-01-02T03:43:30.566Z,3.70
2023-01-02T03:45:36.514Z,2.92
2023-01-02T03:48:16.240Z,3.63
2023-01-02T03:50:23.491Z,3.42
2023-01-02T03:52:26.237Z,3.80
2023-01-02T03:54:29.412Z,3.00
2023-01-02T03:56:33.932Z,3.33
2023-01-02T03:58:43.353Z,3.60
2023-01-02T04:00:56.637Z,4.00
2023-01-02T04:03:14.372Z,3.83
2023-01-02T04:05:23.698Z,3.70
2023-01-02T04:07:37.259Z,3.15
2023-01-02T04:09:41.220Z,3.42
2023-01-02T04:11:47.264Z,3.25
2023-01-02T04:13:54.353Z,3.05
2023-01-02T04:15:57.471Z,3.28
2023-01-02T04:18:19.878Z,3.78
2023-01-02T04:20:26.559Z,3.72
2023-01-02T04:22:36.605Z,3.42
2023-01-02T04:24:43.435Z,3.45
2023-01-02T04:26:50.129Z,3.67
2023-01-02T04:28:52.081Z,4.28
2023-01-02T04:31:22.586Z,3.90
2023-01-02T04:33:25.794Z,3.78
2023-01-02T04:35:27.717Z,3.47
2023-01-02T04:37:34.806Z,3.53
2023-01-02T04:39:37.732Z,3.83
2023-01-02T04:41:40.419Z,3.88
2023-01-02T04:43:41.889Z,4.47
2023-01-02T04:45:43.350Z,3.75
2023-01-02T04:47:45.047Z,3.60
2023-01-02T04:49:46.524Z,3.35
2023-01-02T04:51:47.975Z,3.72
2023-01-02T04:53:53.412Z,3.22
2023-01-02T04:55:57.047Z,3.30
2023-01-02T04:57:58.676Z,3.60
2023-01-02T05:00:00.154Z,4.40
2023-01-02T05:02:01.928Z,4.43
2023-01-02T05:04:03.596Z,3.63
2023-01-02T05:06:05.394Z,3.83
2023-01-02T05:08:10.658Z,3.60
2023-01-02T05:10:15.430Z,3.97
2023-01-02T05:12:16.872Z,4.32
2023-01-02T05:14:18.310Z,3.83
2023-01-02T05:16:19.801Z,4.18
2023-01-02T05:18:21.314Z,3.88
2023-01-02T05:20:22.901Z,4.50
2023-01-02T05:22:42.926Z,4.32
2023-01-02T05:24:44.397Z,4.47
2023-01-02T05:26:45.844Z,4.50
2023-01-02T05:28:47.279Z,4.22
2023-01-02T05:30:49.644Z,3.95
2023-01-02T05:32:51.222Z,3.53
2023-01-02T05:34:52.686Z,3.63
2023-01-02T05:36:54.172Z,4.10
2023-01-02T05:38:56.090Z,4.35
2023-01-02T05:41:06.227Z,3.92
2023-01-02T05:43:07.686Z,5.60
2023-01-02T05:45:09.541Z,4.35
2023-01-02T05:47:16.227Z,4.18
2023-01-02T05:49:18.058Z,4.47
2023-01-02T05:51:20.562Z,4.30
2023-01-02T05:53:22.051Z,4.10
2023-01-02T05:55:23.527Z,4.03
2023-01-02T05:57:24.988Z,3.88
2023-01-02T05:59:26.438Z,4.28
2023-01-02T06:01:30.422Z,4.32
2023-01-02T06:03:32.020Z,4.10
2023-01-02T06:05:34.803Z,3.67
2023-01-02T06:07:36.281Z,4.45
2023-01-02T06:09:37.807Z,4.05
2023-01-02T06:11:39.276Z,4.47
2023-01-02T06:13:40.850Z,4.03
2023-01-02T06:15:42.355Z,4.28
2023-01-02T06:17:43.894Z,4.55
2023-01-02T06:19:51.887Z,3.55
2023-01-02T06:21:55.437Z,4.80
2023-01-02T06:24:00.198Z,3.97
2023-01-02T06:26:24.407Z,4.00
2023-01-02T06:28:25.872Z,3.97
2023-01-02T06:30:27.335Z,4.00
2023-01-02T06:32:29.496Z,4.40
2023-01-02T06:34:31.028Z,3.78
2023-01-02T06:36:34.407Z,4.30
2023-01-02T06:38:36.344Z,3.53
2023-01-02T06:40:37.792Z,4.13
2023-01-02T06:42:39.383Z,3.65
2023-01-02T06:44:40.923Z,3.95
2023-01-02T06:46:42.358Z,3.95
2023-01-02T06:48:44.017Z,3.80
2023-01-02T06:50:45.964Z,4.10
2023-01-02T06:52:47.399Z,3.67
2023-01-02T06:54:48.863Z,3.85
2023-01-02T06:56:50.301Z,4.22
2023-01-02T06:58:51.825Z,3.53
2023-01-02T07:00:53.361Z,3.72
2023-01-02T07:02:54.862Z,3.47
2023-01-02T07:04:56.371Z,3.42
2023-01-02T07:06:57.841Z,3.53
2023-01-02T07:08:59.315Z,3.67
2023-01-02T07:11:26.985Z,4.47
2023-01-02T07:13:28.443Z,3.63
2023-01-02T07:15:30.252Z,4.00
2023-01-02T07:17:33.099Z,3.50
2023-01-02T07:19:34.569Z,3.28
2023-01-02T07:21:36.100Z,3.83
2023-01-02T07:23:38.235Z,3.53
2023-01-02T07:25:44.366Z,4.05
2023-01-02T07:27:46.302Z,3.63
2023-01-02T07:29:47.813Z,3.60
2023-01-02T07:31:49.286Z,3.92
2023-01-02T07:33:50.765Z,3.38
2023-01-02T07:35:52.239Z,3.88
2023-01-02T07:37:53.706Z,4.03
2023-01-02T07:39:55.143Z,3.88
2023-01-02T07:41:56.603Z,3.60
2023-01-02T07:43:58.053Z,3.78
2023-01-02T07:46:04.151Z,3.83
2023-01-02T07:48:05.754Z,4.13
2023-01-02T07:50:07.514Z,3.42
2023-01-02T07:52:10.080Z,4.03
2023-01-02T07:54:11.518Z,3.60
2023-01-02T07:56:12.968Z,3.90
2023-01-02T07:58:14.421Z,3.80
2023-01-02T08:00:18.166Z,4.03
2023-01-02T08:02:19.694Z,3.38
2023-01-02T08:04:21.277Z,3.13
2023-01-02T08:06:22.780Z,3.55
2023-01-02T08:08:24.269Z,3.65
2023-01-02T08:10:25.802Z,3.08
2023-01-02T08:12:27.805Z,3.55
2023-01-02T08:14:29.309Z,3.78
2023-01-02T08:16:30.957Z,3.70
2023-01-02T08:18:32.692Z,3.97
2023-01-02T08:20:34.208Z,3.55
2023-01-02T08:22:35.944Z,3.65
2023-01-02T08:24:37.888Z,3.28
2023-01-02T08:26:39.428Z,3.58
2023-01-02T08:28:41.885Z,3.97
2023-01-02T08:30:43.520Z,3.63
2023-01-02T08:32:45.056Z,3.50
2023-01-02T08:34:46.502Z,3.83
2023-01-02T08:36:47.991Z,3.53
2023-01-02T08:38:49.478Z,3.53
2023-01-02T08:40:51.143Z,3.20
2023-01-02T08:42:53.588Z,3.38
2023-01-02T08:44:55.064Z,3.17
2023-01-02T08:46:56.529Z,2.92
2023-01-02T08:48:58.170Z,3.20
2023-01-02T08:50:59.643Z,3.03
2023-01-02T08:53:01.135Z,2.70
2023-01-02T08:55:05.552Z,3.05
2023-01-02T08:57:07.001Z,2.78
2023-01-02T08:59:11.828Z,2.90
2023-01-02T09:01:13.304Z,3.28
2023-01-02T09:03:14.851Z,3.17
2023-01-02T09:05:16.443Z,2.83
2023-01-02T09:07:17.907Z,3.17
2023-01-02T09:09:19.371Z,3.22
2023-01-02T09:11:25.905Z,2.63
2023-01-02T09:13:27.348Z,2.90
2023-01-02T09:15:28.831Z,2.55
2023-01-02T09:17:30.839Z,2.90
2023-01-02T09:19:32.353Z,2.92
2023-01-02T09:21:34.073Z,2.80
2023-01-02T09:23:35.833Z,2.63
2023-01-02T09:25:37.357Z,2.47
2023-01-02T09:27:38.810Z,2.67
2023-01-02T09:29:40.297Z,2.53
2023-01-02T09:31:42.043Z,2.47
2023-01-02T09:33:45.129Z,2.50
2023-01-02T09:35:46.611Z,2.65
2023-01-02T09:37:48.084Z,2.42
2023-01-02T09:39:49.547Z,2.40
2023-01-02T09:41:54.241Z,2.83
2023-01-02T09:44:38.669Z,2.33
2023-01-02T09:46:49.579Z,2.35
2023-01-02T09:48:51.158Z,2.30
2023-01-02T09:50:52.639Z,2.15
2023-01-02T09:52:57.709Z,2.50
2023-01-02T09:54:59.976Z,2.53
2023-01-02T09:57:22.640Z,2.35
2023-01-02T09:59:35.354Z,3.00
2023-01-02T10:01:54.561Z,2.80
2023-01-02T10:04:25.067Z,2.30
2023-01-02T10:06:44.690Z,1.88
2023-01-02T10:08:58.401Z,1.63
2023-01-02T10:11:35.900Z,1.35
2023-01-02T10:14:17.875Z,1.50
2023-01-02T10:16:20.016Z,1.17
2023-01-02T10:18:47.683Z,1.38
2023-01-02T10:20:57.255Z,1.20
2023-01-02T10:23:08.630Z,1.40
2023-01-02T10:25:16.559Z,0.90
2023-01-02T10:27:24.129Z,1.00
2023-01-02T10:29:33.553Z,1.00
2023-01-02T10:31:43.603Z,0.98
2023-01-02T10:33:51.222Z,0.82
2023-01-02T10:36:01.225Z,0.73
2023-01-02T10:38:03.075Z,0.60
2023-01-02T10:40:05.132Z,0.50
2023-01-02T10:42:09.739Z,0.50
2023-01-02T10:44:22.191Z,0.50
2023-01-02T10:46:23.736Z,0.60
2023-01-02T10:48:30.225Z,0.50
2023-01-02T10:50:44.969Z,0.60
2023-01-02T10:52:50.319Z,0.50
2023-01-02T10:54:59.641Z,0.50
2023-01-02T10:57:01.768Z,0.60
2023-01-02T10:59:04.213Z,0.57
2023-01-02T11:01:18.338Z,0.57
2023-01-02T11:03:27.543Z,0.40
2023-01-02T11:05:31.220Z,0.50
2023-01-02T11:07:36.140Z,0.43
2023-01-02T11:09:37.686Z,0.40
2023-01-02T11:11:49.458Z,0.20
2023-01-02T11:13:54.986Z,0.20
2023-01-02T11:16:00.009Z,0.30
2023-01-02T11:18:11.158Z,0.40
2023-01-02T11:20:29.365Z,0.30
2023-01-02T11:22:36.991Z,0.25
2023-01-02T11:25:01.298Z,0.20
2023-01-02T11:27:03.139Z,0.30
2023-01-02T11:29:23.087Z,0.40
2023-01-02T11:31:24.968Z,0.30
2023-01-02T11:33:30.508Z,0.30
2023-01-02T11:35:50.737Z,0.50
2023-01-02T11:37:52.714Z,0.35
2023-01-02T11:40:26.773Z,0.30
2023-01-02T11:42:54.409Z,0.38
2023-01-02T11:45:15.686Z,0.50
2023-01-02T11:47:18.509Z,0.68
2023-01-02T11:49:24.922Z,0.50
2023-01-02T11:51:28.776Z,0.60
2023-01-02T11:53:40.615Z,0.55
2023-01-02T11:55:47.607Z,0.60
2023-01-02T11:58:02.645Z,0.50
2023-01-02T12:00:15.765Z,0.57
2023-01-02T12:02:51.531Z,0.50
2023-01-02T12:04:53.085Z,0.50
2023-01-02T12:07:29.136Z,0.60
2023-01-02T12:09:58.203Z,0.50
2023-01-02T12:11:59.605Z,0.70
2023-01-02T12:14:16.346Z,0.80
2023-01-02T12:16:34.296Z,0.52
2023-01-02T12:18:51.944Z,0.38
2023-01-02T12:21:16.784Z,0.40
2023-01-02T12:23:44.235Z,0.38
2023-01-02T12:26:09.995Z,0.30
2023-01-02T12:28:11.462Z,0.30
2023-01-02T12:30:16.559Z,0.20
2023-01-02T12:32:55.483Z,0.30
2023-01-02T12:35:06.049Z,0.35
2023-01-02T12:37:35.968Z,0.40
2023-01-02T12:39:55.743Z,0.20
2023-01-02T12:42:09.699Z,0.40
2023-01-02T12:44:39.112Z,0.30
2023-01-02T12:47:05.155Z,0.40
2023-01-02T12:49:22.496Z,0.40
2023-01-02T12:52:00.685Z,0.35
2023-01-02T12:54:18.897Z,0.32
2023-01-02T12:56:48.324Z,0.60
2023-01-02T12:59:18.050Z,0.40
2023-01-02T13:01:26.848Z,0.40
2023-01-02T13:03:38.703Z,0.38
2023-01-02T13:05:47.953Z,0.50
2023-01-02T13:07:54.509Z,0.50
2023-01-02T13:10:01.418Z,0.50
2023-01-02T13:12:21.581Z,0.82
2023-01-02T13:14:30.077Z,0.40
2023-01-02T13:16:32.268Z,0.40
2023-01-02T13:19:00.613Z,0.22
2023-01-02T13:21:26.269Z,0.35
2023-01-02T13:23:35.672Z,0.40
2023-01-02T13:25:45.851Z,0.30
2023-01-02T13:27:49.362Z,0.40
2023-01-02T13:29:52.892Z,0.40
2023-01-02T13:31:55.903Z,0.30
2023-01-02T13:33:57.722Z,0.55
2023-01-02T13:36:17.580Z,0.55
2023-01-02T13:38:21.022Z,0.60
2023-01-02T13:40:28.459Z,0.80
2023-01-02T13:42:55.093Z,1.20
2023-01-02T13:44:59.568Z,1.20
2023-01-02T13:47:17.785Z,1.52
2023-01-02T13:49:23.636Z,1.38
2023-01-02T13:51:36.602Z,1.40
2023-01-02T13:53:45.756Z,1.38
2023-01-02T13:56:06.825Z,1.40
2023-01-02T13:58:20.342Z,1.20
2023-01-02T14:00:37.124Z,1.00
2023-01-02T14:02:38.755Z,0.80
2023-01-02T14:04:41.086Z,0.60
2023-01-02T14:06:53.565Z,0.77
2023-01-02T14:09:04.476Z,0.77
2023-01-02T14:11:07.129Z,0.70
2023-01-02T14:13:12.562Z,0.60
2023-01-02T14:15:20.493Z,0.88
2023-01-02T14:17:37.747Z,0.70
2023-01-02T14:19:39.505Z,0.60
2023-01-02T14:21:44.085Z,0.80
2023-01-02T14:24:16.968Z,0.65
2023-01-02T14:26:25.255Z,0.93
2023-01-02T14:28:30.277Z,0.98
2023-01-02T14:30:41.120Z,0.50
2023-01-02T14:32:46.087Z,0.80
2023-01-02T14:34:52.548Z,0.70
2023-01-02T14:36:57.365Z,0.60
2023-01-02T14:38:59.372Z,0.80
2023-01-02T14:41:19.465Z,0.85
2023-01-02T14:43:35.766Z,0.60
2023-01-02T14:45:44.725Z,0.63
2023-01-02T14:47:54.422Z,0.63
2023-01-02T14:49:59.972Z,0.52
2023-01-02T14:52:07.074Z,0.70
2023-01-02T14:54:11.617Z,0.70
2023-01-02T14:56:18.404Z,0.70
2023-01-02T14:58:38.590Z,0.50
2023-01-02T15:00:44.365Z,0.70
2023-01-02T15:02:48.698Z,1.00
2023-01-02T15:04:57.371Z,0.85
2023-01-02T15:07:10.427Z,0.70
2023-01-02T15:09:17.910Z,0.90
2023-01-02T15:11:41.020Z,1.00
2023-01-02T15:14:04.740Z,1.42
2023-01-02T15:16:08.857Z,1.27
2023-01-02T15:18:23.595Z,0.70
2023-01-02T15:20:27.673Z,1.25
2023-01-02T15:22:37.232Z,1.00
2023-01-02T15:24:39.987Z,0.90
2023-01-02T15:26:44.710Z,1.20
2023-01-02T15:29:14.529Z,1.70
2023-01-02T15:31:16.148Z,1.20
2023-01-02T15:33:51.055Z,1.70
2023-01-02T15:36:09.623Z,1.60
2023-01-02T15:38:22.289Z,2.40
2023-01-02T15:40:23.720Z,1.55
2023-01-02T15:42:46.850Z,1.65
2023-01-02T15:45:06.917Z,1.58
2023-01-02T15:47:09.806Z,1.40
2023-01-02T15:49:14.581Z,1.70
2023-01-02T15:51:18.363Z,1.48
2023-01-02T15:53:32.049Z,1.70
2023-01-02T15:55:37.344Z,2.38
2023-01-02T15:57:46.420Z,1.50
2023-01-02T15:59:48.312Z,1.90
2023-01-02T16:01:49.849Z,1.98
2023-01-02T16:04:02.928Z,1.83
2023-01-02T16:06:21.192Z,2.13
2023-01-02T16:08:27.145Z,2.17
2023-01-02T16:10:29.820Z,2.40
2023-01-02T16:12:31.706Z,2.30
2023-01-02T16:14:55.762Z,2.25
2023-01-02T16:17:24.745Z,2.30
2023-01-02T16:19:31.113Z,2.72
2023-01-02T16:21:32.927Z,2.40
2023-01-02T16:23:37.569Z,2.60
2023-01-02T16:25:45.403Z,2.97
2023-01-02T16:28:04.327Z,2.87
2023-01-02T16:30:25.688Z,2.65
2023-01-02T16:32:32.159Z,2.53
2023-01-02T16:34:36.153Z,2.60
2023-01-02T16:36:37.630Z,2.88
2023-01-02T16:38:46.931Z,2.50
2023-01-02T16:41:01.379Z,2.47
2023-01-02T16:43:07.067Z,2.65
2023-01-02T16:45:08.972Z,3.20
2023-01-02T16:47:10.523Z,2.20
2023-01-02T16:49:15.164Z,2.63
2023-01-02T16:51:16.895Z,3.10
2023-01-02T16:53:30.223Z,2.95
2023-01-02T16:55:31.812Z,2.42
2023-01-02T16:57:33.295Z,2.75
2023-01-02T16:59:36.027Z,2.30
2023-01-02T17:01:37.763Z,2.05
2023-01-02T17:03:39.379Z,2.05
2023-01-02T17:05:45.549Z,2.20
2023-01-02T17:07:47.097Z,2.20
2023-01-02T17:09:48.541Z,2.38
2023-01-02T17:12:07.775Z,3.03
2023-01-02T17:14:09.537Z,2.17
2023-01-02T17:16:11.155Z,2.38
2023-01-02T17:18:13.419Z,2.22
2023-01-02T17:20:15.625Z,2.70
2023-01-02T17:22:17.143Z,2.47
2023-01-02T17:24:19.042Z,2.70
2023-01-02T17:26:21.498Z,3.00
2023-01-02T17:28:23.056Z,3.30
2023-01-02T17:30:25.719Z,3.50
2023-01-02T17:32:27.225Z,3.85
2023-01-02T17:34:28.690Z,4.28
2023-01-02T17:36:33.399Z,4.30
2023-01-02T17:38:34.852Z,4.82
2023-01-02T17:40:37.290Z,4.30
2023-01-02T17:42:39.108Z,4.82
2023-01-02T17:44:40.588Z,4.68
2023-01-02T17:47:15.408Z,5.38
2023-01-02T17:49:03.519Z,5.13
2023-01-02T17:51:05.263Z,5.32
2023-01-02T17:53:07.044Z,5.50
2023-01-02T17:55:09.231Z,5.43
2023-01-02T17:57:11.463Z,4.68
2023-01-02T17:59:14.020Z,5.30
2023-01-02T18:01:20.595Z,5.28
2023-01-02T18:03:22.279Z,4.10
2023-01-02T18:05:23.834Z,2.97
2023-01-02T18:07:25.347Z,2.10
2023-01-02T18:09:27.019Z,2.10
2023-01-02T18:11:28.562Z,1.98
2023-01-02T18:13:30.209Z,2.42
2023-01-02T18:15:31.762Z,2.08
2023-01-02T18:17:33.243Z,1.60
2023-01-02T18:19:37.633Z,1.25
2023-01-02T18:21:39.127Z,1.25
2023-01-02T18:23:41.577Z,1.13
2023-01-02T18:25:43.244Z,1.17
2023-01-02T18:27:45.638Z,0.80
2023-01-02T18:29:57.430Z,0.93
2023-01-02T18:31:59.217Z,0.85
2023-01-02T18:34:11.391Z,0.80
2023-01-02T18:36:24.525Z,0.60
2023-01-02T18:38:36.550Z,1.10
2023-01-02T18:40:38.864Z,1.02
2023-01-02T18:42:42.252Z,0.60
2023-01-02T18:44:44.434Z,0.55
2023-01-02T18:47:03.990Z,0.77
2023-01-02T18:49:29.205Z,0.70
2023-01-02T18:51:30.778Z,0.98
2023-01-02T18:53:39.201Z,0.70
2023-01-02T18:55:40.787Z,1.05
2023-01-02T18:57:55.564Z,0.90
2023-01-02T19:00:13.389Z,0.60
2023-01-02T19:02:30.142Z,0.70
2023-01-02T19:04:36.159Z,0.73
2023-01-02T19:06:45.639Z,0.80
2023-01-02T19:08:47.199Z,0.90
2023-01-02T19:10:51.338Z,0.70
2023-01-02T19:13:07.336Z,1.10
2023-01-02T19:15:31.531Z,0.85
2023-01-02T19:17:34.787Z,1.08
2023-01-02T19:19:40.562Z,0.90
2023-01-02T19:21:42.746Z,0.95
2023-01-02T19:23:46.357Z,1.05
2023-01-02T19:25:49.515Z,1.00
2023-01-02T19:27:53.689Z,1.33
2023-01-02T19:29:55.635Z,1.30
2023-01-02T19:32:10.759Z,1.40
2023-01-02T19:34:23.770Z,1.60
2023-01-02T19:36:40.147Z,1.60
2023-01-02T19:38:41.745Z,1.70
2023-01-02T19:40:43.168Z,1.60
2023-01-02T19:42:44.731Z,1.77
2023-01-02T19:44:48.798Z,1.95
2023-01-02T19:46:50.232Z,1.70
2023-01-02T19:48:51.731Z,1.75
2023-01-02T19:50:53.244Z,1.70
2023-01-02T19:52:54.862Z,1.80
2023-01-02T19:54:57.492Z,1.85
2023-01-02T19:56:59.314Z,2.40
2023-01-02T19:59:00.857Z,2.20
2023-01-02T20:01:02.390Z,2.30
2023-01-02T20:03:04.593Z,2.42
2023-01-02T20:05:06.349Z,2.70
2023-01-02T20:07:08.336Z,2.30
2023-01-02T20:09:09.941Z,2.60
2023-01-02T20:11:31.456Z,2.90
2023-01-02T20:13:32.936Z,2.90
2023-01-02T20:15:34.443Z,2.72
2023-01-02T20:17:37.512Z,2.85
2023-01-02T20:19:39.396Z,3.30
2023-01-02T20:21:40.870Z,3.55
2023-01-02T20:23:42.328Z,3.08
2023-01-02T20:25:43.775Z,3.60
2023-01-02T20:27:45.352Z,3.25
2023-01-02T20:29:47.894Z,3.50
2023-01-02T20:31:49.798Z,3.38
2023-01-02T20:33:52.254Z,3.45
2023-01-02T20:35:53.726Z,3.58
2023-01-02T20:37:55.259Z,3.22
2023-01-02T20:39:57.017Z,3.40
2023-01-02T20:41:58.585Z,3.65
2023-01-02T20:44:00.125Z,3.50
2023-01-02T20:46:01.730Z,3.78
2023-01-02T20:48:03.474Z,4.03
2023-01-02T20:50:05.856Z,3.78
2023-01-02T20:52:07.898Z,3.80
2023-01-02T20:54:10.732Z,3.88
2023-01-02T20:56:12.203Z,3.55
2023-01-02T20:58:13.898Z,3.63
2023-01-02T21:00:16.222Z,3.60
2023-01-02T21:02:17.780Z,3.53
2023-01-02T21:04:22.741Z,3.20
2023-01-02T21:06:30.642Z,3.63
2023-01-02T21:08:32.287Z,3.17
2023-01-02T21:10:34.817Z,3.60
2023-01-02T21:12:54.691Z,2.75
2023-01-02T21:14:56.176Z,3.40
2023-01-02T21:16:58.626Z,3.22
2023-01-02T21:19:00.367Z,3.30
2023-01-02T21:21:05.585Z,3.00
2023-01-02T21:23:07.496Z,3.08
2023-01-02T21:25:09.077Z,3.25
2023-01-02T21:27:13.225Z,3.67
2023-01-02T21:29:14.984Z,3.25
2023-01-02T21:31:18.960Z,2.95
2023-01-02T21:33:23.197Z,2.75
2023-01-02T21:35:25.389Z,2.90
2023-01-02T21:37:26.837Z,3.05
2023-01-02T21:39:28.324Z,2.90
2023-01-02T21:41:48.188Z,3.60
2023-01-02T21:43:49.754Z,2.90
2023-01-02T21:45:51.202Z,3.10
2023-01-02T21:47:52.733Z,3.13
2023-01-02T21:49:54.185Z,2.90
2023-01-02T21:51:55.702Z,2.80
2023-01-02T21:53:57.212Z,3.22
2023-01-02T21:55:58.745Z,3.17
2023-01-02T21:58:12.958Z,3.47
2023-01-02T22:00:18.442Z,3.10
2023-01-02T22:02:22.226Z,2.97
2023-01-02T22:04:28.221Z,3.20
2023-01-02T22:06:33.950Z,2.53
2023-01-02T22:08:35.486Z,2.70
2023-01-02T22:10:37.072Z,3.20
2023-01-02T22:12:38.745Z,2.67
2023-01-02T22:14:40.272Z,2.65
2023-01-02T22:16:41.738Z,2.63
2023-01-02T22:18:43.233Z,2.65
2023-01-02T22:20:44.673Z,2.25
2023-01-02T22:22:46.171Z,3.10
2023-01-02T22:24:48.898Z,2.65
2023-01-02T22:26:52.040Z,2.67
2023-01-02T22:28:55.569Z,3.08
2023-01-02T22:30:57.869Z,2.50
2023-01-02T22:32:59.389Z,3.03
2023-01-02T22:35:02.311Z,2.85
2023-01-02T22:37:03.981Z,2.70
2023-01-02T22:41:30.830Z,2.50
2023-01-02T22:43:36.932Z,3.33
2023-01-02T22:45:49.698Z,3.28
2023-01-02T22:47:51.622Z,2.58
2023-01-02T22:49:53.981Z,3.45
2023-01-02T22:52:06.985Z,2.90
2023-01-02T22:54:13.745Z,2.75
2023-01-02T22:56:18.130Z,2.95
2023-01-02T22:58:20.075Z,2.80
2023-01-02T23:00:23.099Z,2.95
2023-01-02T23:02:24.618Z,3.35
2023-01-02T23:04:26.214Z,3.42
2023-01-02T23:06:28.538Z,3.53
2023-01-02T23:08:30.016Z,3.20
2023-01-02T23:10:31.578Z,3.10
2023-01-02T23:12:33.020Z,3.03
2023-01-02T23:14:34.498Z,3.60
2023-01-02T23:16:55.887Z,3.33
2023-01-02T23:19:15.997Z,3.40
2023-01-02T23:21:17.598Z,3.72
2023-01-02T23:23:19.051Z,3.58
2023-01-02T23:25:20.745Z,2.80
2023-01-02T23:27:22.206Z,3.20
2023-01-02T23:29:25.427Z,2.50
2023-01-02T23:31:27.066Z,3.05
2023-01-02T23:33:28.583Z,3.00
2023-01-02T23:35:30.164Z,3.20
2023-01-02T23:37:31.682Z,4.60
2023-01-02T23:39:34.351Z,2.90
2023-01-02T23:41:35.881Z,2.90
2023-01-02T23:43:37.435Z,3.17
2023-01-02T23:45:39.017Z,3.20
2023-01-02T23:47:40.532Z,2.60
2023-01-02T23:49:42.147Z,3.22
2023-01-02T23:51:44.433Z,3.30
2023-01-02T23:53:45.897Z,3.40
2023-01-02T23:55:47.355Z,3.22
2023-01-02T23:57:48.797Z,3.65
2023-01-02T23:59:50.277Z,4.13
